»·PEaware :: N5892E KSAC-KRNO

N5892E :: KSAC-KRNO

FLIGHT INFORMATION

Flight Status: Arrived
Operator: Privately registered:
United States
More flights under this callsign
Pilot: James W. (17580)
Aircraft: MOONEY M-20 201 202 205 220 ATS MSE
(M20P)
More flights by this aircraft type
Origin: KSAC Sacramento Executive
United States
Destination: KRNO Reno/Tahoe Intl
United States
More flights between these airports :: More routes between these airports
Route: +
File this flight plan on PilotEdge
Remarks:
Altitude:
(Current/Filed)
11,500ft
Speed:
(Current/Filed)
0kts
Departed: 20-Oct-20 06:29 PM
Arrived: 20-Oct-20 07:16 PM
Distance/Time
Traveled:
100nm/0:47
Distance/Time
To Go:
Arrived

Flight Plot

Page will automatically refresh every two minutes.

Flight plan parsing failed; only flown route is shown


Map Options




Map Legend


Flown Route
Filed Route
Departure Airport
Arrival Airport
Navaid (VOR, NDB)
Fix

Horizontal Profiles

Position Reports

Time Latitude Longitude Heading Altitude Ground
Speed
20-Oct-20 18:22 38.511805 -121.498142 213 20ft 0kts
20-Oct-20 18:23 38.511805 -121.498142 213 20ft 0kts
20-Oct-20 18:24 38.511388 -121.497399 83 20ft 8kts
20-Oct-20 18:25 38.513809 -121.495248 35 20ft 24kts
20-Oct-20 18:26 38.519147 -121.490323 103 20ft 0kts
20-Oct-20 18:27 38.519116 -121.490109 99 20ft 5kts
20-Oct-20 18:28 38.507924 -121.498661 213 223ft 93kts
20-Oct-20 18:29 38.490648 -121.491382 55 1423ft 96kts
20-Oct-20 18:30 38.511315 -121.472005 32 2677ft 91kts
20-Oct-20 18:31 38.522423 -121.443443 80 3800ft 95kts
20-Oct-20 18:32 38.527111 -121.410096 62 4855ft 95kts
20-Oct-20 18:33 38.540061 -121.380592 49 5934ft 96kts
20-Oct-20 18:34 38.547732 -121.348426 77 6962ft 98kts
20-Oct-20 18:35 38.551629 -121.313206 77 7921ft 101kts
20-Oct-20 18:36 38.554736 -121.275973 80 8824ft 105kts
20-Oct-20 18:37 38.558067 -121.237245 65 9719ft 103kts
20-Oct-20 18:38 38.569370 -121.200192 65 10521ft 107kts
20-Oct-20 18:39 38.579714 -121.161786 61 11380ft 103kts
20-Oct-20 18:40 38.595306 -121.119988 63 11613ft 137kts
20-Oct-20 18:41 38.614725 -121.068623 66 11474ft 162kts
20-Oct-20 18:42 38.627634 -121.011180 63 11628ft 155kts
20-Oct-20 18:43 38.648728 -120.956119 59 11554ft 162kts
20-Oct-20 18:44 38.671378 -120.903735 67 11744ft 157kts
20-Oct-20 18:45 38.691422 -120.846688 67 11574ft 167kts
20-Oct-20 18:46 38.711107 -120.791918 68 11742ft 159kts
20-Oct-20 18:47 38.732721 -120.736318 46 11626ft 173kts
20-Oct-20 18:48 38.775048 -120.696530 41 11529ft 171kts
20-Oct-20 18:49 38.810561 -120.654114 49 11615ft 168kts
20-Oct-20 18:50 38.851340 -120.617184 37 11664ft 165kts
20-Oct-20 18:51 38.888869 -120.576936 37 11573ft 174kts
20-Oct-20 18:52 38.929904 -120.541069 39 11693ft 168kts
20-Oct-20 18:53 38.968575 -120.503571 35 11754ft 173kts
20-Oct-20 18:54 39.007765 -120.459159 44 11491ft 184kts
20-Oct-20 18:55 39.044263 -120.414201 38 11651ft 172kts
20-Oct-20 18:56 39.082788 -120.372038 36 11534ft 175kts
20-Oct-20 18:57 39.119994 -120.332300 38 11600ft 170kts
20-Oct-20 18:58 39.157544 -120.291074 37 11679ft 167kts
20-Oct-20 18:59 39.186247 -120.240844 81 11148ft 185kts
20-Oct-20 19:00 39.196991 -120.173711 70 10476ft 183kts
20-Oct-20 19:01 39.213592 -120.109070 71 9776ft 185kts
20-Oct-20 19:02 39.226469 -120.044508 80 9548ft 174kts
20-Oct-20 19:03 39.236999 -119.983435 75 9483ft 176kts
20-Oct-20 19:04 39.246388 -119.921972 77 9504ft 165kts
20-Oct-20 19:05 39.256347 -119.863815 73 9482ft 170kts
20-Oct-20 19:06 39.284694 -119.815447 44 8908ft 168kts
20-Oct-20 19:07 39.325906 -119.780991 24 7402ft 166kts
20-Oct-20 19:08 39.370849 -119.769411 0 6316ft 152kts
20-Oct-20 19:09 39.412901 -119.769146 2 5364ft 125kts
20-Oct-20 19:10 39.444035 -119.766644 13 4863ft 108kts
20-Oct-20 19:11 39.473729 -119.756630 7 5137ft 109kts
20-Oct-20 19:12 39.504530 -119.753982 5 5418ft 113kts
20-Oct-20 19:13 39.532347 -119.755900 268 4995ft 113kts
20-Oct-20 19:14 39.511713 -119.766720 177 4423ft 73kts
20-Oct-20 19:15 39.502821 -119.765842 101 4417ft 0kts
20-Oct-20 19:16 39.500871 -119.764855 86 4417ft 10kts
20-Oct-20 19:17 39.502009 -119.764636 268 4417ft 0kts

Navigation Log

Ident Type
Flight plan parsing failed, navigation log unavailable